Time;durP1;ratioP1;P1;durP2;ratioP2;P2;SDS_P1;SDS_P2;PMS_P1;PMS_P2;Temp;Humidity;BMP_temperature;BMP_pressure;BME280_temperature;BME280_humidity;BME280_pressure;Samples;Min_cycle;Max_cycle;Signal;HPM_P1;HPM_P2
2021/05/06 00:01:20;;;;;;;4.17;3.80;;;4.00;99.90;;;;;;5084344;28;20435;-81
2021/05/06 00:32:29;;;;;;;5.20;3.80;;;4.60;95.10;;;;;;5091522;28;20446;-81
2021/05/06 00:35:04;;;;;;;5.90;3.43;;;4.60;94.90;;;;;;5095419;28;20482;-81
2021/05/06 00:37:47;;;;;;;4.30;3.90;;;4.70;94.00;;;;;;5099816;27;20522;-80
2021/05/06 00:40:26;;;;;;;5.60;3.90;;;4.70;93.50;;;;;;5101711;28;20512;-81
2021/05/06 00:54:40;;;;;;;4.27;3.40;;;4.50;93.00;;;;;;5099706;28;20547;-81
2021/05/06 00:57:19;;;;;;;7.83;3.27;;;4.40;94.20;;;;;;5105202;28;20462;-83
2021/05/06 01:00:15;;;;;;;6.43;3.33;;;4.40;94.20;;;;;;5091400;28;20454;-80
2021/05/06 01:03:00;;;;;;;5.63;3.20;;;4.30;94.50;;;;;;5086589;28;20538;-80
2021/05/06 01:05:39;;;;;;;3.33;3.03;;;4.30;94.80;;;;;;5088490;28;20820;-82
2021/05/06 01:08:19;;;;;;;3.40;3.10;;;4.40;94.90;;;;;;5090397;28;20595;-83
2021/05/06 01:11:04;;;;;;;3.47;3.17;;;4.40;93.70;;;;;;5095001;28;20447;-82
2021/05/06 01:13:42;;;;;;;6.80;3.13;;;4.40;94.20;;;;;;5097889;28;20435;-81
2021/05/06 01:16:17;;;;;;;4.00;3.23;;;4.40;93.60;;;;;;5092383;28;20467;-80
2021/05/06 01:18:52;;;;;;;3.97;3.03;;;4.50;93.20;;;;;;5089761;28;20999;-80
2021/05/06 01:21:27;;;;;;;4.67;3.20;;;4.50;94.10;;;;;;5092583;28;20451;-81
2021/05/06 01:24:04;;;;;;;3.57;2.43;;;4.50;93.10;;;;;;5082650;28;20442;-80
2021/05/06 01:26:43;;;;;;;3.90;3.47;;;4.50;93.20;;;;;;5082032;28;20855;-80
2021/05/06 01:29:22;;;;;;;4.47;3.03;;;4.50;92.50;;;;;;5087264;28;20572;-79
2021/05/06 01:32:06;;;;;;;2.83;2.63;;;4.60;93.10;;;;;;5086299;28;20850;-80
2021/05/06 01:34:43;;;;;;;4.90;2.90;;;4.60;91.80;;;;;;5087709;28;20449;-80
2021/05/06 01:37:30;;;;;;;5.80;3.67;;;4.70;92.60;;;;;;5085752;28;20493;-81
2021/05/06 01:40:24;;;;;;;4.27;2.77;;;4.70;91.70;;;;;;5092837;28;20477;-80
2021/05/06 01:43:03;;;;;;;3.37;3.07;;;4.60;91.80;;;;;;5092367;28;20479;-80
2021/05/06 01:46:03;;;;;;;4.50;3.13;;;4.70;91.40;;;;;;5091098;28;20452;-81
2021/05/06 02:00:03;;;;;;;2.70;2.50;;;4.80;90.00;;;;;;5091315;28;20514;-80
2021/05/06 02:02:38;;;;;;;3.07;2.47;;;4.80;90.20;;;;;;5089541;28;20468;-80
2021/05/06 02:05:15;;;;;;;2.50;2.30;;;4.80;90.50;;;;;;5095609;28;20443;-80
2021/05/06 02:07:50;;;;;;;4.70;3.00;;;4.80;90.40;;;;;;5086873;28;20471;-79
2021/05/06 02:10:28;;;;;;;3.80;2.60;;;4.80;90.30;;;;;;5093551;28;20444;-80
2021/05/06 02:13:03;;;;;;;3.43;2.80;;;4.70;91.10;;;;;;5094271;28;20450;-80
2021/05/06 02:15:39;;;;;;;4.10;2.83;;;4.90;91.00;;;;;;5086834;28;20493;-79
2021/05/06 02:18:15;;;;;;;4.27;2.73;;;4.80;91.00;;;;;;5091787;28;20449;-81
2021/05/06 02:20:51;;;;;;;4.40;3.13;;;4.80;91.60;;;;;;5089818;28;20440;-80
2021/05/06 02:23:28;;;;;;;4.03;2.70;;;4.80;91.70;;;;;;5088084;28;20440;-81
2021/05/06 02:26:03;;;;;;;3.63;2.70;;;4.80;91.10;;;;;;5092623;28;20481;-81
2021/05/06 02:28:38;;;;;;;2.50;2.30;;;4.80;91.60;;;;;;5085648;28;20494;-83
2021/05/06 02:31:14;;;;;;;4.40;2.33;;;4.80;91.30;;;;;;5095254;28;20474;-82
2021/05/06 02:33:50;;;;;;;2.90;2.57;;;4.80;91.70;;;;;;5093462;28;20471;-83
2021/05/06 02:36:25;;;;;;;2.60;2.30;;;4.80;91.00;;;;;;5094542;28;20473;-82
2021/05/06 02:39:00;;;;;;;2.37;2.17;;;4.80;91.20;;;;;;5087193;28;20473;-81
2021/05/06 02:41:36;;;;;;;4.50;2.63;;;4.80;91.50;;;;;;5094081;28;20441;-82
2021/05/06 02:44:11;;;;;;;4.10;2.23;;;4.80;91.80;;;;;;5096612;28;20466;-83
2021/05/06 02:46:46;;;;;;;6.33;2.90;;;4.80;92.00;;;;;;5093061;28;20448;-81
2021/05/06 02:49:22;;;;;;;2.60;2.40;;;4.70;92.20;;;;;;5087484;28;20558;-81
2021/05/06 02:52:03;;;;;;;2.80;2.50;;;4.70;92.00;;;;;;5094075;28;20560;-81
2021/05/06 02:54:41;;;;;;;2.47;2.27;;;4.70;92.50;;;;;;5091869;28;20467;-82
2021/05/06 02:57:29;;;;;;;4.13;2.73;;;4.70;92.80;;;;;;5095570;28;20454;-82
2021/05/06 03:03:00;;;;;;;5.00;2.50;;;4.70;92.90;;;;;;5095336;28;20458;-81
2021/05/06 03:05:37;;;;;;;2.73;2.37;;;4.70;92.90;;;;;;5097973;28;20474;-80
2021/05/06 03:08:16;;;;;;;3.53;2.30;;;4.70;93.10;;;;;;5101239;28;20553;-81
2021/05/06 03:11:18;;;;;;;3.90;3.10;;;4.70;93.10;;;;;;5093187;28;20491;-81
2021/05/06 03:25:14;;;;;;;5.90;2.87;;;4.80;92.40;;;;;;5090929;28;20555;-81
2021/05/06 03:27:53;;;;;;;3.50;2.23;;;4.80;92.30;;;;;;5094566;28;20545;-82
2021/05/06 03:30:54;;;;;;;8.40;3.20;;;4.80;92.00;;;;;;5090590;28;20613;-80
2021/05/06 03:42:02;;;;;;;4.70;2.67;;;4.90;91.90;;;;;;5087313;28;20506;-82
2021/05/06 03:44:52;;;;;;;3.37;2.77;;;4.90;92.00;;;;;;5086919;28;20880;-83
2021/05/06 04:19:12;;;;;;;5.10;2.87;;;5.30;88.30;;;;;;5090133;28;20459;-84
2021/05/06 04:22:11;;;;;;;6.33;2.70;;;5.40;87.00;;;;;;5097669;28;20459;-82
2021/05/06 04:27:40;;;;;;;3.23;2.90;;;7.40;78.50;;;;;;5098755;28;20500;-81
2021/05/06 04:30:36;;;;;;;3.97;3.03;;;6.50;77.70;;;;;;5096282;28;20471;-82
2021/05/06 04:36:05;;;;;;;8.17;3.37;;;6.00;81.20;;;;;;5093664;28;20565;-82
2021/05/06 04:38:41;;;;;;;4.30;3.07;;;6.00;82.00;;;;;;5091024;28;20454;-82
2021/05/06 04:41:30;;;;;;;6.00;3.53;;;6.00;81.70;;;;;;5103163;28;20450;-83
2021/05/06 04:55:48;;;;;;;4.17;2.77;;;6.30;79.20;;;;;;5097874;28;20463;-83
2021/05/06 05:04:25;;;;;;;4.20;2.70;;;12.20;64.90;;;;;;5099663;28;20460;-82
2021/05/06 05:07:08;;;;;;;5.17;2.10;;;12.40;62.90;;;;;;5101608;28;20460;-82
2021/05/06 05:12:56;;;;;;;5.50;2.33;;;12.00;59.80;;;;;;5093301;28;20452;-82
2021/05/06 05:18:32;;;;;;;10.43;2.93;;;9.30;65.50;;;;;;5100521;28;20448;-80
2021/05/06 05:21:22;;;;;;;10.03;3.30;;;12.30;62.20;;;;;;5100087;27;20452;-81
2021/05/06 05:24:00;;;;;;;3.97;2.23;;;14.30;58.80;;;;;;5101481;28;20436;-83
2021/05/06 05:26:35;;;;;;;7.30;2.20;;;13.00;56.50;;;;;;5100491;28;20473;-82
2021/05/06 05:29:18;;;;;;;5.13;2.30;;;12.00;55.80;;;;;;5104468;28;20464;-83
2021/05/06 05:31:53;;;;;;;3.37;1.83;;;11.90;57.60;;;;;;5095836;28;20459;-81
2021/05/06 05:34:33;;;;;;;5.80;2.00;;;12.40;57.50;;;;;;5100165;28;20447;-81
2021/05/06 05:37:15;;;;;;;10.33;2.43;;;13.50;56.70;;;;;;5097422;28;20449;-82
2021/05/06 05:40:11;;;;;;;3.57;2.00;;;13.60;55.40;;;;;;5097433;28;20456;-82
2021/05/06 05:42:56;;;;;;;4.23;1.73;;;12.50;54.80;;;;;;5104959;28;20469;-83
2021/05/06 05:46:03;;;;;;;4.00;1.83;;;12.80;55.40;;;;;;5103470;28;20498;-84
2021/05/06 05:54:40;;;;;;;5.23;1.77;;;11.40;55.60;;;;;;5100253;28;20441;-82
2021/05/06 05:57:15;;;;;;;3.60;2.20;;;11.10;55.70;;;;;;5095950;28;20448;-81
2021/05/06 05:59:50;;;;;;;2.42;1.80;;;11.40;55.80;;;;;;5089847;28;20498;-80
2021/05/06 06:02:25;;;;;;;4.83;2.27;;;10.70;55.20;;;;;;5087634;28;20186;-82
2021/05/06 06:05:00;;;;;;;6.80;2.13;;;10.30;56.00;;;;;;5093329;28;20490;-81
2021/05/06 06:07:33;;;;;;;2.57;1.70;;;10.00;56.40;;;;;;5085806;28;20460;-81
2021/05/06 06:10:08;;;;;;;2.63;2.43;;;10.40;57.90;;;;;;5087352;28;20497;-80
2021/05/06 06:12:43;;;;;;;2.93;2.07;;;9.90;57.60;;;;;;5085295;28;20457;-80
2021/05/06 06:15:26;;;;;;;4.73;2.00;;;9.20;57.60;;;;;;5088227;28;20493;-81
2021/05/06 06:18:12;;;;;;;3.73;1.83;;;9.00;58.60;;;;;;5085112;28;20460;-80
2021/05/06 06:20:54;;;;;;;3.30;1.90;;;9.20;59.10;;;;;;5076193;28;20453;-79
2021/05/06 06:23:29;;;;;;;4.27;2.63;;;9.40;59.00;;;;;;5083275;28;20953;-83
2021/05/06 06:26:04;;;;;;;2.93;2.53;;;9.40;57.70;;;;;;5082879;28;20464;-79
2021/05/06 06:28:41;;;;;;;6.53;1.97;;;9.20;58.00;;;;;;5077540;28;20471;-81
2021/05/06 06:31:19;;;;;;;4.70;2.07;;;9.10;58.00;;;;;;5082862;28;20462;-81
2021/05/06 06:33:56;;;;;;;4.50;2.23;;;9.10;57.90;;;;;;5077022;28;20540;-81
2021/05/06 06:36:43;;;;;;;9.33;2.40;;;9.50;58.00;;;;;;5086593;28;20554;-82
2021/05/06 06:39:18;;;;;;;4.80;2.40;;;9.80;57.50;;;;;;5082612;28;20830;-81
2021/05/06 06:41:53;;;;;;;5.23;3.00;;;9.90;57.30;;;;;;5082526;28;20452;-81
2021/05/06 06:44:30;;;;;;;7.43;2.50;;;9.90;57.30;;;;;;5084727;28;20510;-81
2021/05/06 06:47:06;;;;;;;4.93;2.83;;;9.60;56.80;;;;;;5083772;28;20452;-80
2021/05/06 06:49:44;;;;;;;2.93;2.10;;;9.70;56.80;;;;;;5087237;28;20521;-80
2021/05/06 06:52:19;;;;;;;4.30;2.43;;;9.80;56.50;;;;;;5086056;28;20477;-80
2021/05/06 06:54:55;;;;;;;3.63;1.90;;;9.70;56.30;;;;;;5083576;28;20443;-79
2021/05/06 07:03:06;;;;;;;3.23;1.87;;;9.90;55.70;;;;;;5092479;28;20493;-84
2021/05/06 07:05:42;;;;;;;2.10;1.70;;;10.20;54.00;;;;;;5090046;28;20455;-83
2021/05/06 07:08:22;;;;;;;4.60;1.97;;;9.80;55.10;;;;;;5094381;28;21019;-78
2021/05/06 07:10:59;;;;;;;3.60;1.90;;;9.70;55.40;;;;;;5089467;28;20516;-84
2021/05/06 07:13:39;;;;;;;4.03;2.33;;;10.10;54.60;;;;;;5095646;28;20440;-85
2021/05/06 07:16:14;;;;;;;2.97;1.77;;;10.20;54.10;;;;;;5092266;28;20291;-82
2021/05/06 07:18:47;;;;;;;5.90;2.53;;;10.30;54.20;;;;;;5101124;28;20444;-78
2021/05/06 07:21:23;;;;;;;5.83;2.40;;;10.80;53.90;;;;;;5095269;28;20506;-83
2021/05/06 07:24:00;;;;;;;3.20;1.70;;;11.00;53.10;;;;;;5082412;28;20449;-84
2021/05/06 07:26:36;;;;;;;3.97;2.10;;;10.90;52.80;;;;;;5098155;28;20497;-82
2021/05/06 07:29:14;;;;;;;3.20;1.57;;;11.10;53.20;;;;;;5095613;28;20611;-81
2021/05/06 07:31:51;;;;;;;2.37;1.80;;;10.60;52.50;;;;;;5091388;28;20464;-82
2021/05/06 07:34:31;;;;;;;3.40;2.00;;;10.70;52.90;;;;;;5090254;28;20449;-86
2021/05/06 07:37:19;;;;;;;3.20;1.70;;;10.50;52.20;;;;;;5083753;28;20857;-86
2021/05/06 07:43:15;;;;;;;5.20;2.53;;;9.90;54.00;;;;;;5075017;28;20481;-86
2021/05/06 07:45:58;;;;;;;3.83;1.93;;;9.70;53.80;;;;;;5090034;28;20448;-86
2021/05/06 07:48:33;;;;;;;2.63;1.77;;;10.10;53.10;;;;;;5091539;28;20874;-85
2021/05/06 07:51:09;;;;;;;6.50;2.30;;;10.50;52.80;;;;;;5083413;28;20457;-86
2021/05/06 07:56:41;;;;;;;3.83;1.67;;;10.20;52.40;;;;;;5083909;28;20459;-85
2021/05/06 07:59:16;;;;;;;5.47;2.00;;;10.20;53.00;;;;;;5082598;28;20516;-86
2021/05/06 08:01:56;;;;;;;6.30;2.30;;;10.30;53.60;;;;;;5090482;28;20478;-85
2021/05/06 08:04:36;;;;;;;4.33;1.63;;;10.60;53.30;;;;;;5102637;28;20480;-87
2021/05/06 08:07:19;;;;;;;6.03;2.10;;;10.90;53.20;;;;;;5098878;28;20516;-83
2021/05/06 08:12:48;;;;;;;7.73;2.90;;;11.00;52.50;;;;;;5100176;28;20457;-85
2021/05/06 08:15:23;;;;;;;9.70;2.50;;;10.90;53.10;;;;;;5083407;28;20450;-85
2021/05/06 08:18:00;;;;;;;8.40;1.70;;;10.90;53.10;;;;;;5087830;28;20444;-85
2021/05/06 08:29:16;;;;;;;6.20;2.27;;;11.50;52.00;;;;;;5085899;28;20530;-84
2021/05/06 08:32:01;;;;;;;2.90;2.30;;;11.60;52.30;;;;;;5083788;28;20444;-82
2021/05/06 08:37:53;;;;;;;5.10;2.60;;;11.30;52.00;;;;;;5075753;28;20446;-86
2021/05/06 08:40:28;;;;;;;3.53;1.90;;;11.10;52.50;;;;;;5098856;28;20474;-85
2021/05/06 08:52:20;;;;;;;3.63;2.10;;;10.40;54.80;;;;;;5089334;28;20456;-87
2021/05/06 08:54:56;;;;;;;4.15;2.40;;;10.00;55.60;;;;;;5090469;28;20448;-80
2021/05/06 08:57:32;;;;;;;2.87;2.03;;;9.80;57.50;;;;;;5096901;28;20255;-82
2021/05/06 09:00:08;;;;;;;3.00;2.70;;;9.70;58.10;;;;;;5096257;28;20449;-83
2021/05/06 09:02:52;;;;;;;10.10;2.17;;;9.50;59.70;;;;;;5086278;28;20470;-87
2021/05/06 09:05:35;;;;;;;2.83;1.87;;;9.50;59.10;;;;;;5091688;28;20551;-83
2021/05/06 09:08:08;;;;;;;4.30;2.60;;;9.40;59.70;;;;;;5085505;28;20452;-81
2021/05/06 09:10:44;;;;;;;4.90;2.43;;;9.40;60.50;;;;;;5097693;28;20460;-83
2021/05/06 09:13:38;;;;;;;4.13;2.23;;;9.30;60.70;;;;;;5107857;28;20444;-87
2021/05/06 09:16:14;;;;;;;3.87;2.87;;;9.20;61.70;;;;;;5095698;28;20560;-85
2021/05/06 09:18:50;;;;;;;6.20;3.10;;;9.30;62.20;;;;;;5096561;28;20649;-84
2021/05/06 09:21:43;;;;;;;3.10;2.57;;;9.30;62.80;;;;;;5090196;28;20467;-87
2021/05/06 09:29:53;;;;;;;6.50;4.20;;;9.40;64.30;;;;;;5017963;28;20463;-80
2021/05/06 09:32:32;;;;;;;4.13;3.30;;;9.70;64.70;;;;;;5020922;28;20228;-78
2021/05/06 09:35:08;;;;;;;3.70;3.40;;;10.00;63.50;;;;;;5023677;28;20685;-81
2021/05/06 09:37:49;;;;;;;6.50;5.90;;;10.10;63.00;;;;;;5031220;28;20487;-80
2021/05/06 09:40:25;;;;;;;8.43;5.80;;;10.10;62.80;;;;;;5022218;28;20490;-80
2021/05/06 09:43:05;;;;;;;4.67;3.00;;;10.10;62.60;;;;;;5016929;28;20452;-84
2021/05/06 09:45:40;;;;;;;2.80;2.50;;;10.10;62.40;;;;;;5019832;28;20451;-83
2021/05/06 09:48:19;;;;;;;4.93;3.27;;;10.10;63.80;;;;;;5018727;28;20454;-82
2021/05/06 09:50:56;;;;;;;5.40;4.90;;;10.40;64.80;;;;;;5034134;28;20443;-82
2021/05/06 09:53:34;;;;;;;11.13;7.50;;;10.20;63.40;;;;;;5045488;28;20443;-81
2021/05/06 09:56:15;;;;;;;7.50;4.40;;;9.90;64.60;;;;;;5034813;28;20523;-82
2021/05/06 09:58:50;;;;;;;3.57;3.27;;;10.00;64.50;;;;;;5028949;28;20443;-81
2021/05/06 10:04:40;;;;;;;9.80;7.97;;;10.10;64.00;;;;;;4994528;28;20503;-77
2021/05/06 10:07:22;;;;;;;5.60;3.10;;;9.80;65.90;;;;;;5010509;28;20216;-78
2021/05/06 10:09:59;;;;;;;5.43;3.10;;;9.70;65.90;;;;;;5010849;28;21001;-78
2021/05/06 10:12:36;;;;;;;3.57;2.83;;;9.60;66.50;;;;;;5015501;28;20467;-77
2021/05/06 10:15:14;;;;;;;8.70;3.07;;;9.50;66.20;;;;;;5002534;28;20467;-78
2021/05/06 10:17:49;;;;;;;7.03;3.00;;;9.40;66.80;;;;;;5006369;28;20450;-79
2021/05/06 10:20:26;;;;;;;3.33;2.67;;;9.40;66.70;;;;;;5005776;28;20450;-79
2021/05/06 10:23:03;;;;;;;4.40;3.20;;;9.20;67.50;;;;;;5016279;28;20462;-78
2021/05/06 10:25:38;;;;;;;6.80;4.27;;;9.40;70.60;;;;;;5011068;28;20801;-80
2021/05/06 10:28:13;;;;;;;6.20;3.80;;;9.80;70.40;;;;;;5014184;28;20801;-81
2021/05/06 10:30:49;;;;;;;6.03;4.07;;;10.00;70.70;;;;;;5016940;28;20467;-80
2021/05/06 10:33:28;;;;;;;6.90;3.90;;;10.90;69.40;;;;;;5019766;28;20452;-81
2021/05/06 10:36:05;;;;;;;8.57;3.90;;;11.30;67.90;;;;;;5020470;28;20662;-79
2021/05/06 10:38:43;;;;;;;5.13;3.70;;;10.70;68.20;;;;;;5019698;28;20448;-79
2021/05/06 10:41:38;;;;;;;6.07;4.60;;;9.90;71.60;;;;;;5019165;28;20459;-79
2021/05/06 10:44:15;;;;;;;3.60;3.30;;;9.40;73.70;;;;;;5025701;28;20444;-81
2021/05/06 10:47:03;;;;;;;4.37;3.50;;;9.40;74.30;;;;;;5019297;28;20455;-78
2021/05/06 10:50:10;;;;;;;5.80;4.33;;;9.80;73.00;;;;;;5012603;28;20467;-78
2021/05/06 10:52:49;;;;;;;3.63;3.30;;;9.50;73.30;;;;;;5013356;28;20455;-79
2021/05/06 10:55:56;;;;;;;4.60;3.60;;;9.50;74.60;;;;;;5013572;28;20498;-84
2021/05/06 10:58:48;;;;;;;7.37;4.20;;;9.10;75.60;;;;;;5010448;28;20462;-82
2021/05/06 11:01:30;;;;;;;6.57;4.30;;;9.50;76.60;;;;;;5013699;28;20460;-82
2021/05/06 11:04:25;;;;;;;5.40;3.67;;;9.40;77.90;;;;;;5016390;28;20452;-79
2021/05/06 11:07:18;;;;;;;5.00;3.87;;;9.90;75.60;;;;;;5013330;28;20498;-80
2021/05/06 11:09:58;;;;;;;5.33;4.00;;;9.60;76.50;;;;;;5017700;28;20544;-82
2021/05/06 11:12:58;;;;;;;4.63;3.30;;;9.40;77.50;;;;;;5009311;28;20459;-83
2021/05/06 11:15:36;;;;;;;9.80;4.60;;;9.40;77.80;;;;;;5021755;28;20447;-82
2021/05/06 11:18:13;;;;;;;5.23;4.37;;;9.30;76.00;;;;;;5024859;28;20459;-80
2021/05/06 11:20:56;;;;;;;9.20;4.00;;;9.10;79.00;;;;;;5014036;28;20456;-80
2021/05/06 11:23:36;;;;;;;6.13;4.63;;;9.00;80.80;;;;;;5026075;28;20456;-82
2021/05/06 11:29:56;;;;;;;7.30;4.67;;;9.10;79.90;;;;;;5064920;28;20560;-83
2021/05/06 11:32:50;;;;;;;6.40;4.70;;;9.40;79.20;;;;;;5070472;28;20955;-80
2021/05/06 11:38:54;;;;;;;11.37;5.50;;;9.90;76.70;;;;;;5063916;28;20450;-80
2021/05/06 11:41:34;;;;;;;4.83;4.40;;;10.00;75.70;;;;;;5066026;28;20476;-81
2021/05/06 11:44:11;;;;;;;5.43;4.47;;;10.00;73.40;;;;;;5059080;28;20461;-80
2021/05/06 11:46:51;;;;;;;5.47;4.80;;;10.20;72.50;;;;;;5065494;28;20441;-80
2021/05/06 11:49:29;;;;;;;5.27;3.93;;;10.10;71.80;;;;;;5066348;28;20556;-80
2021/05/06 11:52:04;;;;;;;4.70;4.10;;;10.30;71.00;;;;;;5062489;28;20917;-83
2021/05/06 11:54:39;;;;;;;8.70;3.87;;;10.40;70.50;;;;;;5046859;28;20446;-77
2021/05/06 11:57:16;;;;;;;6.10;3.53;;;10.20;70.30;;;;;;5061559;28;20449;-79
2021/05/06 11:59:52;;;;;;;5.43;4.17;;;10.30;69.80;;;;;;5054478;28;20524;-82
2021/05/06 12:02:35;;;;;;;4.00;3.60;;;10.30;69.40;;;;;;5064299;28;20481;-81
2021/05/06 12:11:42;;;;;;;3.93;3.50;;;10.50;69.10;;;;;;5066187;28;20457;-82
2021/05/06 12:14:40;;;;;;;4.30;3.07;;;10.60;67.80;;;;;;5064223;28;20540;-82
2021/05/06 12:17:50;;;;;;;4.47;3.20;;;10.60;66.20;;;;;;5066541;28;20529;-81
2021/05/06 12:20:26;;;;;;;3.87;2.70;;;10.30;65.50;;;;;;5062503;28;20952;-84
2021/05/06 12:23:02;;;;;;;9.20;3.00;;;10.20;64.90;;;;;;5068641;28;20445;-81
2021/05/06 12:31:20;;;;;;;4.93;3.20;;;10.30;64.10;;;;;;5730553;22;21027;-80
2021/05/06 12:33:57;;;;;;;4.17;2.80;;;10.40;64.30;;;;;;5067582;28;20457;-82
2021/05/06 12:36:35;;;;;;;6.10;3.30;;;10.40;63.60;;;;;;5068243;28;20504;-82
2021/05/06 12:39:11;;;;;;;3.77;2.83;;;10.40;63.50;;;;;;5064767;28;20517;-82
2021/05/06 12:42:17;;;;;;;9.17;3.70;;;10.60;63.50;;;;;;5073976;28;20434;-83
2021/05/06 12:44:59;;;;;;;6.40;2.70;;;10.70;63.20;;;;;;5056950;28;20449;-84
2021/05/06 12:47:49;;;;;;;4.17;2.83;;;10.50;62.90;;;;;;5066218;28;20472;-81
2021/05/06 12:50:32;;;;;;;5.50;3.13;;;10.30;63.10;;;;;;5071206;28;20494;-83
2021/05/06 12:53:36;;;;;;;4.83;2.70;;;10.20;63.10;;;;;;5071114;28;20437;-81
2021/05/06 13:03:10;;;;;;;4.87;2.43;;;10.10;63.40;;;;;;5021034;28;20197;-78
2021/05/06 13:05:49;;;;;;;5.17;3.20;;;10.20;63.20;;;;;;5060176;28;20450;-78
2021/05/06 13:08:36;;;;;;;4.37;3.20;;;10.30;63.30;;;;;;5064070;28;20457;-81
2021/05/06 13:11:13;;;;;;;7.90;3.65;;;10.10;63.00;;;;;;5062678;28;20439;-79
2021/05/06 13:13:59;;;;;;;5.17;3.60;;;10.10;63.40;;;;;;5072524;28;20442;-83
2021/05/06 13:16:56;;;;;;;4.93;3.20;;;10.00;63.40;;;;;;5064869;28;20469;-80
2021/05/06 13:19:40;;;;;;;3.10;2.80;;;10.00;63.30;;;;;;5049820;28;20450;-78
2021/05/06 13:25:10;;;;;;;8.75;3.55;;;10.00;63.20;;;;;;5064475;28;20448;-86
2021/05/06 13:27:54;;;;;;;7.23;3.40;;;10.10;63.50;;;;;;5060432;28;20188;-84
2021/05/06 13:30:52;;;;;;;9.30;3.90;;;10.20;63.30;;;;;;5065032;28;20473;-85
2021/05/06 13:33:48;;;;;;;6.47;2.70;;;10.10;63.20;;;;;;5064844;28;20477;-85
2021/05/06 13:36:49;;;;;;;6.83;3.10;;;10.10;62.70;;;;;;5065416;28;20545;-85
2021/05/06 13:39:25;;;;;;;12.83;2.80;;;10.10;63.10;;;;;;5061567;28;20483;-87
2021/05/06 13:42:04;;;;;;;5.20;3.10;;;10.00;62.80;;;;;;5044944;28;20447;-85
2021/05/06 13:44:46;;;;;;;9.17;3.60;;;10.00;62.70;;;;;;5065563;28;20466;-85
2021/05/06 13:47:23;;;;;;;6.10;3.13;;;10.10;63.20;;;;;;5064905;28;20458;-87
2021/05/06 13:50:00;;;;;;;5.90;3.20;;;10.00;63.30;;;;;;5039336;28;20531;-87
2021/05/06 13:52:46;;;;;;;9.17;3.57;;;10.10;63.10;;;;;;5056107;28;20469;-87
2021/05/06 13:55:26;;;;;;;8.23;3.00;;;10.10;63.40;;;;;;5044639;28;20456;-85
2021/05/06 14:00:54;;;;;;;6.47;3.47;;;10.20;63.10;;;;;;5062201;28;20471;-83
2021/05/06 14:03:40;;;;;;;5.37;3.60;;;10.30;63.60;;;;;;5065389;28;20196;-83
2021/05/06 14:06:16;;;;;;;5.33;3.93;;;10.20;63.20;;;;;;5062051;28;20959;-83
2021/05/06 14:09:04;;;;;;;11.00;4.27;;;10.20;64.30;;;;;;5062289;28;20952;-84
2021/05/06 14:14:34;;;;;;;7.20;4.37;;;10.50;65.50;;;;;;5064060;28;20446;-84
2021/05/06 14:17:16;;;;;;;11.63;3.87;;;10.40;65.10;;;;;;5063355;28;20468;-80
2021/05/06 14:19:53;;;;;;;7.67;4.23;;;10.50;65.40;;;;;;5066733;28;20465;-78
2021/05/06 14:22:28;;;;;;;7.13;3.77;;;10.60;66.60;;;;;;5059800;28;20508;-79
2021/05/06 14:25:04;;;;;;;5.70;3.47;;;10.50;66.80;;;;;;5056853;28;20460;-79
2021/05/06 14:27:39;;;;;;;5.73;3.90;;;10.60;66.30;;;;;;5059978;28;20450;-82
2021/05/06 14:30:21;;;;;;;11.50;3.87;;;10.50;67.70;;;;;;5055853;28;20465;-87
2021/05/06 14:32:56;;;;;;;10.90;3.77;;;10.60;68.00;;;;;;5055196;28;20466;-87
2021/05/06 14:35:41;;;;;;;8.40;3.63;;;10.60;68.60;;;;;;5055552;28;20971;-82
2021/05/06 14:38:16;;;;;;;5.53;3.33;;;10.60;68.90;;;;;;5055355;28;20470;-80
2021/05/06 14:40:52;;;;;;;7.03;4.60;;;10.60;69.00;;;;;;5055505;28;20967;-79
2021/05/06 14:43:27;;;;;;;6.33;3.23;;;10.60;70.90;;;;;;5050476;28;20896;-82
2021/05/06 14:46:05;;;;;;;5.60;3.73;;;10.50;69.70;;;;;;5053837;28;20441;-82
2021/05/06 14:48:41;;;;;;;5.70;4.03;;;10.30;70.00;;;;;;5056463;28;20442;-85
2021/05/06 14:51:16;;;;;;;6.47;4.00;;;10.40;71.70;;;;;;5049071;28;20498;-80
2021/05/06 14:53:51;;;;;;;6.27;4.20;;;10.50;71.60;;;;;;5057039;28;20488;-81
2021/05/06 14:56:28;;;;;;;6.93;3.60;;;10.30;71.70;;;;;;5050186;28;20482;-80
2021/05/06 14:59:04;;;;;;;7.20;5.37;;;10.20;72.90;;;;;;5049103;28;20446;-84
2021/05/06 15:01:39;;;;;;;5.77;4.10;;;10.10;72.70;;;;;;5045964;28;20450;-80
2021/05/06 15:04:22;;;;;;;6.27;5.17;;;10.10;73.50;;;;;;5050660;28;20525;-79
2021/05/06 15:06:56;;;;;;;12.23;5.73;;;10.00;73.80;;;;;;5044827;28;20528;-81
2021/05/06 15:09:31;;;;;;;10.07;4.50;;;9.90;76.30;;;;;;5042454;28;20990;-82
2021/05/06 15:12:08;;;;;;;8.67;4.60;;;9.80;76.50;;;;;;5047516;28;20454;-81
2021/05/06 15:14:43;;;;;;;7.30;4.03;;;9.70;77.60;;;;;;5053017;28;20445;-81
2021/05/06 15:17:17;;;;;;;6.20;4.30;;;9.50;78.90;;;;;;5047047;28;21027;-80
2021/05/06 15:19:53;;;;;;;6.27;4.50;;;9.50;80.50;;;;;;5043044;28;20454;-79
2021/05/06 15:22:28;;;;;;;6.80;4.20;;;9.50;82.70;;;;;;5046377;28;20442;-82
2021/05/06 15:25:00;;;;;;;8.30;5.17;;;9.50;83.20;;;;;;5057349;28;20476;-84
2021/05/06 15:27:36;;;;;;;6.97;5.30;;;9.50;85.20;;;;;;5056748;28;20556;-83
2021/05/06 15:30:12;;;;;;;7.63;5.00;;;9.40;83.90;;;;;;5051495;28;20473;-84
2021/05/06 15:32:47;;;;;;;8.65;4.80;;;9.40;83.50;;;;;;5052824;28;20450;-79
2021/05/06 15:35:23;;;;;;;4.83;4.20;;;9.30;84.00;;;;;;5046937;28;20230;-85
2021/05/06 15:37:59;;;;;;;7.73;4.67;;;9.40;84.80;;;;;;5051924;28;20541;-81
2021/05/06 15:40:33;;;;;;;7.37;5.20;;;9.40;85.90;;;;;;5047663;28;20473;-83
2021/05/06 15:43:11;;;;;;;7.97;4.60;;;9.40;85.50;;;;;;5047480;28;20442;-83
2021/05/06 15:45:46;;;;;;;12.03;4.70;;;9.30;87.70;;;;;;5051815;28;20440;-79
2021/05/06 15:48:22;;;;;;;9.40;5.43;;;9.30;88.00;;;;;;5055625;28;20874;-83
2021/05/06 15:50:57;;;;;;;7.03;5.00;;;9.30;87.80;;;;;;5060155;28;20480;-79
2021/05/06 15:53:31;;;;;;;9.27;4.90;;;9.30;87.80;;;;;;5066005;28;20997;-80
2021/05/06 15:56:06;;;;;;;6.70;4.40;;;9.20;90.20;;;;;;5053108;28;20492;-79
2021/05/06 15:58:42;;;;;;;9.70;5.60;;;9.10;90.70;;;;;;5053916;28;20803;-87
2021/05/06 16:01:18;;;;;;;10.60;7.73;;;8.80;92.90;;;;;;5050295;28;20442;-81
2021/05/06 16:04:01;;;;;;;14.00;7.40;;;8.80;93.80;;;;;;5050941;28;20446;-81
2021/05/06 16:06:36;;;;;;;9.40;5.87;;;8.90;95.80;;;;;;5053369;28;20449;-77
2021/05/06 16:09:12;;;;;;;7.43;5.40;;;9.00;94.50;;;;;;5054147;28;22947;-78
2021/05/06 16:11:46;;;;;;;5.40;4.80;;;8.70;95.00;;;;;;5052662;28;20449;-78
2021/05/06 16:14:22;;;;;;;7.87;5.30;;;8.70;94.20;;;;;;5047422;28;20453;-82
2021/05/06 16:16:57;;;;;;;5.87;5.27;;;8.50;96.20;;;;;;5052482;28;20868;-79
2021/05/06 16:19:32;;;;;;;5.77;4.83;;;8.50;97.20;;;;;;5047126;28;20488;-79
2021/05/06 16:22:08;;;;;;;7.07;5.00;;;8.40;97.90;;;;;;5053716;28;20788;-78
2021/05/06 16:24:43;;;;;;;7.83;5.17;;;8.50;99.90;;;;;;5050798;28;20507;-82
2021/05/06 16:27:17;;;;;;;7.90;5.67;;;8.40;99.90;;;;;;5052699;28;20463;-79
2021/05/06 16:29:53;;;;;;;9.17;6.00;;;8.50;99.90;;;;;;5050040;28;20527;-78
2021/05/06 16:32:28;;;;;;;8.37;6.30;;;8.50;99.90;;;;;;5053901;28;20453;-78
2021/05/06 16:35:05;;;;;;;8.63;6.23;;;8.50;99.90;;;;;;5054654;28;20452;-79
2021/05/06 16:37:45;;;;;;;7.70;6.13;;;8.50;99.90;;;;;;5056478;28;20448;-78
2021/05/06 16:40:27;;;;;;;10.73;5.80;;;8.40;99.90;;;;;;5052491;28;20461;-83
2021/05/06 16:43:26;;;;;;;11.43;6.07;;;8.50;99.90;;;;;;5056821;28;20955;-81
2021/05/06 16:46:04;;;;;;;7.20;6.43;;;8.50;99.90;;;;;;5053915;28;20743;-79
2021/05/06 16:48:39;;;;;;;10.97;6.40;;;8.60;99.90;;;;;;5049350;28;20446;-78
2021/05/06 16:51:14;;;;;;;9.63;5.80;;;8.60;99.90;;;;;;5050476;28;20543;-78
2021/05/06 16:53:50;;;;;;;7.03;5.23;;;8.70;99.90;;;;;;5052096;28;20461;-80
2021/05/06 16:56:25;;;;;;;5.03;4.63;;;8.70;99.90;;;;;;5049878;28;20532;-79
2021/05/06 16:59:00;;;;;;;5.57;4.70;;;8.80;99.90;;;;;;5054237;28;20567;-78
2021/05/06 17:01:37;;;;;;;5.30;4.80;;;9.10;97.90;;;;;;5049110;28;20462;-80
2021/05/06 17:04:12;;;;;;;6.73;5.47;;;9.20;99.40;;;;;;5047686;28;20457;-80
2021/05/06 17:06:55;;;;;;;8.37;5.60;;;9.10;99.90;;;;;;5044661;28;20545;-81
2021/05/06 17:09:32;;;;;;;4.30;3.90;;;9.10;99.90;;;;;;5049720;28;20462;-77
2021/05/06 17:12:08;;;;;;;4.40;3.20;;;9.00;99.90;;;;;;5047582;28;20446;-84
2021/05/06 17:14:40;;;;;;;3.40;3.10;;;8.90;99.90;;;;;;5044797;28;20486;-78
2021/05/06 17:17:16;;;;;;;2.80;2.60;;;9.00;95.40;;;;;;5045990;28;20458;-77
2021/05/06 17:19:51;;;;;;;1.83;1.73;;;8.90;95.30;;;;;;5045989;28;20519;-79
2021/05/06 17:22:25;;;;;;;6.73;2.10;;;8.90;94.80;;;;;;5046664;28;20458;-79
2021/05/06 17:25:00;;;;;;;2.20;2.00;;;8.80;96.40;;;;;;5046705;28;20469;-79
2021/05/06 17:27:35;;;;;;;2.80;1.80;;;8.80;96.40;;;;;;5044754;28;20547;-78
2021/05/06 17:30:11;;;;;;;2.53;1.60;;;8.80;96.90;;;;;;5047014;28;20469;-79
2021/05/06 17:32:48;;;;;;;2.30;1.83;;;8.70;95.50;;;;;;5042564;28;20490;-81
2021/05/06 17:35:23;;;;;;;1.77;1.67;;;8.60;96.10;;;;;;5044568;28;20600;-78
2021/05/06 17:38:00;;;;;;;1.93;1.83;;;8.60;96.30;;;;;;5046738;28;20561;-78